createdAt,value
2019-03-23T00:27:29.855Z,23.35
2019-03-23T00:56:13.630Z,24.77
2019-03-23T01:02:21.574Z,21.90
2019-03-23T01:05:03.123Z,21.90
2019-03-23T01:11:19.462Z,22.13
2019-03-23T01:13:52.119Z,20.60
2019-03-23T01:16:26.949Z,22.42
2019-03-23T01:19:07.166Z,20.72
2019-03-23T01:24:40.522Z,20.57
2019-03-23T01:27:13.344Z,21.05
2019-03-23T01:33:02.140Z,20.45
2019-03-23T01:41:47.179Z,19.65
2019-03-23T01:44:46.480Z,20.65
2019-03-23T01:47:51.621Z,20.00
2019-03-23T01:50:25.326Z,18.95
2019-03-23T01:53:08.419Z,19.00
2019-03-23T01:55:43.966Z,20.30
2019-03-23T02:02:02.627Z,19.05
2019-03-23T02:45:33.388Z,17.07
2019-03-23T03:16:41.752Z,15.65
2019-03-23T04:43:35.435Z,11.83
2019-03-23T04:46:10.170Z,12.18
2019-03-23T05:01:37.915Z,12.05
2019-03-23T05:05:07.874Z,11.78
2019-03-23T05:55:08.309Z,10.70
2019-03-23T06:01:22.490Z,9.28
2019-03-23T06:10:15.384Z,10.78
2019-03-23T06:13:05.267Z,9.10
2019-03-23T06:26:36.799Z,9.95
2019-03-23T06:32:31.301Z,10.13
2019-03-23T06:35:25.484Z,9.70
2019-03-23T06:41:23.683Z,10.30
2019-03-23T06:56:56.499Z,11.33
2019-03-23T07:12:39.976Z,12.85
2019-03-23T07:18:16.243Z,14.43
2019-03-23T07:20:45.850Z,14.43
2019-03-23T07:23:14.746Z,15.05
2019-03-23T07:25:49.990Z,14.65
2019-03-23T07:32:05.923Z,13.58
2019-03-23T07:34:39.496Z,14.20
2019-03-23T07:37:08.163Z,15.40
2019-03-23T07:39:49.055Z,15.32
2019-03-23T07:42:41.606Z,13.15
2019-03-23T07:45:12.642Z,14.63
2019-03-23T07:50:38.367Z,13.75
2019-03-23T07:53:07.244Z,12.73
2019-03-23T07:55:36.259Z,13.45
2019-03-23T07:58:05.126Z,12.15
2019-03-23T08:00:34.759Z,14.03
2019-03-23T08:03:03.582Z,13.45
2019-03-23T08:05:32.640Z,12.73
2019-03-23T08:08:01.326Z,14.47
2019-03-23T08:10:34.249Z,15.60
2019-03-23T08:13:03.305Z,14.17
2019-03-23T08:15:32.630Z,14.90
2019-03-23T08:18:01.633Z,14.63
2019-03-23T08:20:35.036Z,15.58
2019-03-23T08:23:03.968Z,18.23
2019-03-23T08:25:32.895Z,15.78
2019-03-23T08:28:02.518Z,17.12
2019-03-23T08:30:31.497Z,16.67
2019-03-23T08:33:00.388Z,14.98
2019-03-23T08:35:31.087Z,11.85
2019-03-23T08:37:59.603Z,11.53
2019-03-23T08:40:28.615Z,11.10
2019-03-23T08:43:02.213Z,11.08
2019-03-23T08:45:31.619Z,11.28
2019-03-23T08:48:05.067Z,14.20
2019-03-23T08:51:23.838Z,11.33
2019-03-23T08:53:35.812Z,9.75
2019-03-23T08:56:13.442Z,11.00
2019-03-23T08:58:41.106Z,9.90
2019-03-23T09:01:09.876Z,10.63
2019-03-23T09:03:38.911Z,10.72
2019-03-23T09:06:07.864Z,10.88
2019-03-23T09:08:38.700Z,11.43
2019-03-23T09:11:07.283Z,7.20
2019-03-23T09:13:40.532Z,7.47
2019-03-23T09:16:06.790Z,8.98
2019-03-23T09:18:56.501Z,8.15
2019-03-23T09:21:25.269Z,7.62
2019-03-23T09:23:54.156Z,7.50
2019-03-23T09:26:27.776Z,6.40
2019-03-23T09:31:26.238Z,6.97
2019-03-23T09:33:57.094Z,6.08
2019-03-23T09:36:25.983Z,6.12
2019-03-23T09:38:54.772Z,7.33
2019-03-23T09:41:23.695Z,8.30
2019-03-23T09:43:52.373Z,7.12
2019-03-23T09:46:21.341Z,6.62
2019-03-23T09:48:50.206Z,6.97
2019-03-23T09:51:19.041Z,7.47
2019-03-23T09:53:47.839Z,7.28
2019-03-23T09:56:16.703Z,6.85
2019-03-23T09:58:47.165Z,5.80
2019-03-23T10:01:15.842Z,6.33
2019-03-23T10:03:44.951Z,7.17
2019-03-23T10:06:13.810Z,6.15
2019-03-23T10:08:42.620Z,6.05
2019-03-23T10:11:11.411Z,5.92
2019-03-23T10:13:40.212Z,7.05
2019-03-23T10:16:09.021Z,6.40
2019-03-23T10:18:37.890Z,5.97
2019-03-23T10:21:06.651Z,6.30
2019-03-23T10:23:36.842Z,7.10
2019-03-23T10:26:05.574Z,7.60
2019-03-23T10:28:34.301Z,7.45
2019-03-23T10:31:02.985Z,6.62
2019-03-23T10:33:31.760Z,7.40
2019-03-23T10:36:00.499Z,6.75
2019-03-23T10:38:29.219Z,8.05
2019-03-23T10:40:57.879Z,7.72
2019-03-23T10:43:26.547Z,7.55
2019-03-23T10:45:55.205Z,7.75
2019-03-23T10:48:23.905Z,7.78
2019-03-23T10:50:52.668Z,7.30
2019-03-23T10:53:23.280Z,8.08
2019-03-23T10:55:51.768Z,7.22
2019-03-23T10:58:20.508Z,7.12
2019-03-23T11:00:49.260Z,7.87
2019-03-23T11:03:17.929Z,6.55
2019-03-23T11:05:46.655Z,7.28
2019-03-23T11:08:15.316Z,7.97
2019-03-23T11:10:44.042Z,6.95
2019-03-23T11:13:12.785Z,8.05
2019-03-23T11:15:41.440Z,7.10
2019-03-23T11:18:10.100Z,6.53
2019-03-23T11:20:38.852Z,7.47
2019-03-23T11:23:07.648Z,7.47
2019-03-23T11:25:36.332Z,7.17
2019-03-23T11:28:05.056Z,6.90
2019-03-23T11:30:33.763Z,6.28
2019-03-23T11:33:02.460Z,7.12
2019-03-23T11:35:31.134Z,7.25
2019-03-23T11:38:02.230Z,7.60
2019-03-23T11:40:30.088Z,6.97
2019-03-23T11:42:58.899Z,7.85
2019-03-23T11:45:27.608Z,6.92
2019-03-23T11:47:56.347Z,7.47
2019-03-23T11:50:25.015Z,7.55
2019-03-23T11:52:53.734Z,7.65
2019-03-23T11:55:25.339Z,8.08
2019-03-23T11:57:54.020Z,8.08
2019-03-23T12:00:22.818Z,6.53
2019-03-23T12:02:51.526Z,6.25
2019-03-23T12:05:20.223Z,7.70
2019-03-23T12:07:48.887Z,6.67
2019-03-23T12:10:17.691Z,7.45
2019-03-23T12:12:46.847Z,7.80
2019-03-23T12:15:15.692Z,6.78
2019-03-23T12:17:44.421Z,7.47
2019-03-23T12:20:13.631Z,5.83
2019-03-23T12:22:42.429Z,6.33
2019-03-23T12:25:11.220Z,6.47
2019-03-23T12:27:41.584Z,6.08
2019-03-23T12:30:13.301Z,6.67
2019-03-23T12:32:42.905Z,6.50
2019-03-23T12:35:11.795Z,6.67
2019-03-23T12:37:44.791Z,7.47
2019-03-23T12:40:13.778Z,6.70
2019-03-23T12:42:43.966Z,6.97
2019-03-23T12:45:12.874Z,7.25
2019-03-23T12:47:41.724Z,5.55
2019-03-23T12:50:11.386Z,6.40
2019-03-23T12:52:40.146Z,6.03
2019-03-23T12:55:09.130Z,6.67
2019-03-23T12:57:37.922Z,6.92
2019-03-23T13:00:12.345Z,7.75
2019-03-23T13:02:41.034Z,6.62
2019-03-23T13:05:11.363Z,6.47
2019-03-23T13:07:40.346Z,7.05
2019-03-23T13:10:12.138Z,7.50
2019-03-23T13:12:40.893Z,6.10
2019-03-23T13:15:12.182Z,7.33
2019-03-23T13:17:41.280Z,7.17
2019-03-23T13:20:10.561Z,7.47
2019-03-23T13:22:39.533Z,7.45
2019-03-23T13:25:09.162Z,7.10
2019-03-23T13:27:42.221Z,7.08
2019-03-23T13:32:40.682Z,7.00
2019-03-23T13:35:10.315Z,7.55
2019-03-23T13:37:39.564Z,7.37
2019-03-23T13:40:11.560Z,6.40
2019-03-23T13:42:40.261Z,7.67
2019-03-23T13:45:09.636Z,7.25
2019-03-23T13:47:45.149Z,7.05
2019-03-23T13:50:24.649Z,7.20
2019-03-23T13:52:53.988Z,7.65
2019-03-23T13:55:33.905Z,6.95
2019-03-23T14:00:54.523Z,7.03
2019-03-23T14:03:23.306Z,6.70
2019-03-23T14:05:52.135Z,6.80
2019-03-23T14:08:20.923Z,7.70
2019-03-23T14:10:49.752Z,9.40
2019-03-23T14:13:18.570Z,7.47
2019-03-23T14:15:47.548Z,8.25
2019-03-23T14:18:17.442Z,7.58
2019-03-23T14:20:48.020Z,8.70
2019-03-23T14:23:17.358Z,8.28
2019-03-23T14:25:46.098Z,9.30
2019-03-23T14:28:19.022Z,8.23
2019-03-23T14:30:49.023Z,9.15
2019-03-23T14:33:17.760Z,8.70
2019-03-23T14:35:46.499Z,8.45
2019-03-23T14:38:15.227Z,8.30
2019-03-23T14:40:44.099Z,8.35
2019-03-23T14:43:12.868Z,8.40
2019-03-23T14:45:41.543Z,6.42
2019-03-23T14:48:10.213Z,7.45
2019-03-23T14:50:38.932Z,8.10
2019-03-23T14:53:09.704Z,7.55
2019-03-23T14:55:38.401Z,8.30
2019-03-23T14:58:07.109Z,8.03
2019-03-23T15:00:36.040Z,10.23
2019-03-23T15:03:04.953Z,7.12
2019-03-23T15:05:34.046Z,9.05
2019-03-23T15:08:03.033Z,7.92
2019-03-23T15:10:31.782Z,8.13
2019-03-23T15:13:00.930Z,7.42
2019-03-23T15:15:29.750Z,8.13
2019-03-23T15:17:58.577Z,8.28
2019-03-23T15:20:27.280Z,8.55
2019-03-23T15:22:58.571Z,7.47
2019-03-23T15:25:27.310Z,7.53
2019-03-23T15:27:56.074Z,7.85
2019-03-23T15:30:24.960Z,8.83
2019-03-23T15:32:58.271Z,7.55
2019-03-23T15:35:30.195Z,8.65
2019-03-23T15:37:59.034Z,8.00
2019-03-23T15:40:30.792Z,8.13
2019-03-23T15:43:01.091Z,7.70
2019-03-23T15:45:29.836Z,8.25
2019-03-23T15:47:58.647Z,8.03
2019-03-23T15:50:30.235Z,9.55
2019-03-23T15:52:58.889Z,7.92
2019-03-23T15:55:30.504Z,8.48
2019-03-23T15:57:59.316Z,8.58
2019-03-23T16:00:28.247Z,8.35
2019-03-23T16:02:58.118Z,9.38
2019-03-23T16:05:26.958Z,8.83
2019-03-23T16:07:55.596Z,9.65
2019-03-23T16:10:24.516Z,8.98
2019-03-23T16:13:09.538Z,9.55
2019-03-23T16:15:40.945Z,9.68
2019-03-23T16:18:12.777Z,10.05
2019-03-23T16:20:41.650Z,10.15
2019-03-23T16:23:11.629Z,10.15
2019-03-23T16:25:43.406Z,9.85
2019-03-23T16:28:14.088Z,9.28
2019-03-23T16:30:53.524Z,10.95
2019-03-23T16:33:22.341Z,10.08
2019-03-23T16:35:54.717Z,9.18
2019-03-23T16:38:37.382Z,10.40
2019-03-23T16:41:06.475Z,11.00
2019-03-23T16:44:06.818Z,11.00
2019-03-23T16:46:37.243Z,11.73
2019-03-23T16:49:11.737Z,10.28
2019-03-23T16:51:40.768Z,10.38
2019-03-23T16:57:16.957Z,10.82
2019-03-23T17:09:59.728Z,12.03
2019-03-23T17:21:39.180Z,12.18
2019-03-23T17:27:45.630Z,11.90
2019-03-23T17:33:46.717Z,11.40
2019-03-23T17:42:28.344Z,10.88
2019-03-23T17:45:36.251Z,10.85
2019-03-23T17:52:05.771Z,12.30
2019-03-23T17:57:41.144Z,11.68
2019-03-23T18:07:29.231Z,13.53
2019-03-23T18:10:02.291Z,13.53
2019-03-23T18:16:02.126Z,14.03
2019-03-23T18:18:36.140Z,15.30
2019-03-23T18:21:17.635Z,15.32
2019-03-23T18:23:57.400Z,14.78
2019-03-23T18:55:00.601Z,17.73
2019-03-23T18:57:51.713Z,18.85
2019-03-23T19:30:17.403Z,21.23
2019-03-23T19:33:11.759Z,18.62
2019-03-23T19:35:40.650Z,20.17
2019-03-23T19:41:49.376Z,17.90
2019-03-23T19:44:18.438Z,18.75
2019-03-23T19:46:47.151Z,20.15
2019-03-23T19:49:16.707Z,18.62
2019-03-23T19:55:02.611Z,23.75
2019-03-23T19:57:59.744Z,22.27
2019-03-23T20:00:34.744Z,22.45
2019-03-23T20:03:20.233Z,21.73
2019-03-23T20:05:52.040Z,21.37
2019-03-23T20:08:25.638Z,26.97
2019-03-23T20:10:54.586Z,28.67
2019-03-23T20:16:52.366Z,24.40
2019-03-23T20:19:28.984Z,22.77
2019-03-23T20:30:29.264Z,21.80
2019-03-23T20:32:58.469Z,23.00
2019-03-23T20:35:49.021Z,23.30
2019-03-23T20:41:09.167Z,22.30
2019-03-23T20:43:43.404Z,22.27
2019-03-23T20:46:14.469Z,21.48
2019-03-23T20:48:47.550Z,22.37
2019-03-23T20:51:16.563Z,21.40
2019-03-23T20:53:53.345Z,22.55
2019-03-23T20:56:22.791Z,22.17
2019-03-23T20:58:53.420Z,22.60
2019-03-23T21:01:24.554Z,21.87
2019-03-23T21:04:33.674Z,22.48
2019-03-23T21:10:42.607Z,22.25
2019-03-23T21:13:17.592Z,21.42
2019-03-23T21:15:48.129Z,23.22
2019-03-23T21:21:38.874Z,21.00
2019-03-23T21:24:08.597Z,19.42
2019-03-23T21:26:40.241Z,21.68
2019-03-23T21:29:09.543Z,20.92
2019-03-23T21:31:39.328Z,19.80
2019-03-23T21:34:08.131Z,19.60
2019-03-23T21:36:37.208Z,20.27
2019-03-23T21:39:07.211Z,20.50
2019-03-23T21:41:37.534Z,20.15
2019-03-23T21:44:06.573Z,21.15
2019-03-23T21:46:35.592Z,21.30
2019-03-23T21:49:04.515Z,19.73
2019-03-23T21:51:34.121Z,20.70
2019-03-23T21:54:02.762Z,22.22
2019-03-23T21:56:31.539Z,23.98
2019-03-23T21:59:01.856Z,23.45
2019-03-23T22:01:30.606Z,23.38
2019-03-23T22:04:02.319Z,26.17
2019-03-23T22:06:32.768Z,27.07
2019-03-23T22:09:01.840Z,25.65
2019-03-23T22:11:38.404Z,29.75
2019-03-23T22:14:09.642Z,35.88
2019-03-23T22:16:39.337Z,32.48
2019-03-23T22:19:09.493Z,30.27
2019-03-23T22:21:39.211Z,27.60
2019-03-23T22:24:09.566Z,27.82
2019-03-23T22:26:40.257Z,25.70
2019-03-23T22:29:11.629Z,24.70
2019-03-23T22:31:41.622Z,24.70
2019-03-23T22:34:11.663Z,24.27
2019-03-23T22:36:42.884Z,23.92
2019-03-23T22:39:13.483Z,23.12
2019-03-23T22:41:43.243Z,24.43
2019-03-23T22:44:13.349Z,23.45
2019-03-23T22:46:43.268Z,24.02
2019-03-23T22:49:12.489Z,25.25
2019-03-23T22:51:41.151Z,25.27
2019-03-23T22:54:11.946Z,24.47
2019-03-23T22:56:42.250Z,23.45
2019-03-23T22:59:12.086Z,24.85
2019-03-23T23:01:42.467Z,27.48
2019-03-23T23:04:12.501Z,23.85
2019-03-23T23:06:45.282Z,24.70
2019-03-23T23:09:14.007Z,24.15
2019-03-23T23:11:44.268Z,24.30
2019-03-23T23:14:14.074Z,25.75
2019-03-23T23:16:44.296Z,24.07
2019-03-23T23:19:13.027Z,24.92
2019-03-23T23:21:44.339Z,24.98
2019-03-23T23:24:13.658Z,23.87
2019-03-23T23:26:42.322Z,23.60
2019-03-23T23:29:10.974Z,22.32
2019-03-23T23:31:39.628Z,23.42
2019-03-23T23:34:10.390Z,23.45
2019-03-23T23:36:39.900Z,22.30
2019-03-23T23:39:11.654Z,22.60
2019-03-23T23:41:41.443Z,25.75
2019-03-23T23:44:10.102Z,25.48
2019-03-23T23:46:38.829Z,23.47
2019-03-23T23:49:08.363Z,25.55
2019-03-23T23:51:49.614Z,24.85
2019-03-23T23:54:11.301Z,26.35
2019-03-23T23:56:41.505Z,24.47
2019-03-23T23:59:10.266Z,24.00
